sensor_id;sensor_type;location;lat;lon;timestamp;P1;durP1;ratioP1;P2;durP2;ratioP2
3643;SDS011;1838;50.742;7.158;2022-11-11T00:01:44;15.30;;;8.40;;
3643;SDS011;1838;50.742;7.158;2022-11-11T00:04:09;23.87;;;10.40;;
3643;SDS011;1838;50.742;7.158;2022-11-11T00:06:35;17.70;;;9.40;;
3643;SDS011;1838;50.742;7.158;2022-11-11T00:09:00;21.43;;;10.20;;
3643;SDS011;1838;50.742;7.158;2022-11-11T00:11:26;19.60;;;8.80;;
3643;SDS011;1838;50.742;7.158;2022-11-11T00:13:52;29.30;;;9.57;;
3643;SDS011;1838;50.742;7.158;2022-11-11T00:16:18;33.00;;;10.40;;
3643;SDS011;1838;50.742;7.158;2022-11-11T00:18:45;25.47;;;10.57;;
3643;SDS011;1838;50.742;7.158;2022-11-11T00:21:29;22.10;;;10.20;;
3643;SDS011;1838;50.742;7.158;2022-11-11T00:27:03;19.10;;;10.10;;
3643;SDS011;1838;50.742;7.158;2022-11-11T00:29:29;27.80;;;10.30;;
3643;SDS011;1838;50.742;7.158;2022-11-11T00:31:55;22.03;;;9.77;;
3643;SDS011;1838;50.742;7.158;2022-11-11T00:34:39;15.70;;;9.27;;
3643;SDS011;1838;50.742;7.158;2022-11-11T00:37:25;17.13;;;8.13;;
3643;SDS011;1838;50.742;7.158;2022-11-11T00:39:50;16.80;;;9.30;;
3643;SDS011;1838;50.742;7.158;2022-11-11T00:42:16;22.73;;;9.57;;
3643;SDS011;1838;50.742;7.158;2022-11-11T00:44:41;14.23;;;8.87;;
3643;SDS011;1838;50.742;7.158;2022-11-11T00:47:07;18.50;;;9.50;;
3643;SDS011;1838;50.742;7.158;2022-11-11T00:49:51;19.00;;;8.50;;
3643;SDS011;1838;50.742;7.158;2022-11-11T00:52:35;19.63;;;8.77;;
3643;SDS011;1838;50.742;7.158;2022-11-11T00:55:01;20.17;;;9.73;;
3643;SDS011;1838;50.742;7.158;2022-11-11T00:57:26;21.60;;;9.20;;
3643;SDS011;1838;50.742;7.158;2022-11-11T00:59:52;19.80;;;9.33;;
3643;SDS011;1838;50.742;7.158;2022-11-11T01:02:17;17.67;;;8.90;;
3643;SDS011;1838;50.742;7.158;2022-11-11T01:04:43;17.47;;;8.30;;
3643;SDS011;1838;50.742;7.158;2022-11-11T01:07:08;24.67;;;9.77;;
3643;SDS011;1838;50.742;7.158;2022-11-11T01:09:34;13.60;;;7.63;;
3643;SDS011;1838;50.742;7.158;2022-11-11T01:11:59;13.97;;;8.30;;
3643;SDS011;1838;50.742;7.158;2022-11-11T01:14:25;16.43;;;8.40;;
3643;SDS011;1838;50.742;7.158;2022-11-11T01:16:50;14.60;;;8.03;;
3643;SDS011;1838;50.742;7.158;2022-11-11T01:19:16;14.30;;;8.93;;
3643;SDS011;1838;50.742;7.158;2022-11-11T01:21:41;23.17;;;7.83;;
3643;SDS011;1838;50.742;7.158;2022-11-11T01:24:07;15.90;;;7.90;;
3643;SDS011;1838;50.742;7.158;2022-11-11T01:26:32;18.10;;;7.87;;
3643;SDS011;1838;50.742;7.158;2022-11-11T01:28:58;12.93;;;7.07;;
3643;SDS011;1838;50.742;7.158;2022-11-11T01:31:23;22.27;;;8.30;;
3643;SDS011;1838;50.742;7.158;2022-11-11T01:33:50;22.90;;;9.87;;
3643;SDS011;1838;50.742;7.158;2022-11-11T01:36:23;14.77;;;7.80;;
3643;SDS011;1838;50.742;7.158;2022-11-11T01:38:51;20.07;;;8.83;;
3643;SDS011;1838;50.742;7.158;2022-11-11T01:41:19;14.40;;;8.67;;
3643;SDS011;1838;50.742;7.158;2022-11-11T01:43:56;16.80;;;8.83;;
3643;SDS011;1838;50.742;7.158;2022-11-11T01:49:18;16.30;;;8.50;;
3643;SDS011;1838;50.742;7.158;2022-11-11T01:52:06;20.87;;;9.43;;
3643;SDS011;1838;50.742;7.158;2022-11-11T01:54:49;17.10;;;8.67;;
3643;SDS011;1838;50.742;7.158;2022-11-11T01:57:40;18.30;;;8.23;;
3643;SDS011;1838;50.742;7.158;2022-11-11T02:00:12;14.90;;;9.40;;
3643;SDS011;1838;50.742;7.158;2022-11-11T02:02:47;12.50;;;7.60;;
3643;SDS011;1838;50.742;7.158;2022-11-11T02:05:19;20.87;;;9.10;;
3643;SDS011;1838;50.742;7.158;2022-11-11T02:08:06;15.87;;;8.10;;
3643;SDS011;1838;50.742;7.158;2022-11-11T02:10:33;16.70;;;8.37;;
3643;SDS011;1838;50.742;7.158;2022-11-11T02:12:59;18.70;;;7.67;;
3643;SDS011;1838;50.742;7.158;2022-11-11T02:15:44;17.80;;;9.23;;
3643;SDS011;1838;50.742;7.158;2022-11-11T02:18:09;19.23;;;8.70;;
3643;SDS011;1838;50.742;7.158;2022-11-11T02:20:36;15.03;;;9.07;;
3643;SDS011;1838;50.742;7.158;2022-11-11T02:23:08;27.00;;;10.67;;
3643;SDS011;1838;50.742;7.158;2022-11-11T02:25:44;21.53;;;10.30;;
3643;SDS011;1838;50.742;7.158;2022-11-11T02:28:12;19.00;;;10.47;;
3643;SDS011;1838;50.742;7.158;2022-11-11T02:30:39;22.07;;;9.80;;
3643;SDS011;1838;50.742;7.158;2022-11-11T02:33:05;15.30;;;8.93;;
3643;SDS011;1838;50.742;7.158;2022-11-11T02:35:31;22.67;;;9.60;;
3643;SDS011;1838;50.742;7.158;2022-11-11T02:38:03;19.33;;;9.67;;
3643;SDS011;1838;50.742;7.158;2022-11-11T02:40:37;18.77;;;9.70;;
3643;SDS011;1838;50.742;7.158;2022-11-11T02:43:24;25.60;;;9.57;;
3643;SDS011;1838;50.742;7.158;2022-11-11T02:45:49;20.10;;;11.17;;
3643;SDS011;1838;50.742;7.158;2022-11-11T02:48:15;22.27;;;10.10;;
3643;SDS011;1838;50.742;7.158;2022-11-11T02:50:41;18.63;;;10.20;;
3643;SDS011;1838;50.742;7.158;2022-11-11T02:53:06;26.27;;;10.47;;
3643;SDS011;1838;50.742;7.158;2022-11-11T02:55:32;19.60;;;10.30;;
3643;SDS011;1838;50.742;7.158;2022-11-11T02:57:57;19.03;;;9.87;;
3643;SDS011;1838;50.742;7.158;2022-11-11T03:00:23;21.60;;;10.10;;
3643;SDS011;1838;50.742;7.158;2022-11-11T03:02:49;17.70;;;9.47;;
3643;SDS011;1838;50.742;7.158;2022-11-11T03:05:14;19.80;;;11.20;;
3643;SDS011;1838;50.742;7.158;2022-11-11T03:07:40;21.73;;;8.97;;
3643;SDS011;1838;50.742;7.158;2022-11-11T03:10:05;22.37;;;9.07;;
3643;SDS011;1838;50.742;7.158;2022-11-11T03:12:31;18.93;;;10.20;;
3643;SDS011;1838;50.742;7.158;2022-11-11T03:14:57;15.97;;;9.17;;
3643;SDS011;1838;50.742;7.158;2022-11-11T03:17:22;22.20;;;10.03;;
3643;SDS011;1838;50.742;7.158;2022-11-11T03:20:03;20.33;;;10.30;;
3643;SDS011;1838;50.742;7.158;2022-11-11T03:23:12;19.03;;;10.37;;
3643;SDS011;1838;50.742;7.158;2022-11-11T03:25:42;25.03;;;10.60;;
3643;SDS011;1838;50.742;7.158;2022-11-11T03:28:13;23.33;;;11.67;;
3643;SDS011;1838;50.742;7.158;2022-11-11T03:30:44;24.17;;;11.27;;
3643;SDS011;1838;50.742;7.158;2022-11-11T03:33:11;21.70;;;9.90;;
3643;SDS011;1838;50.742;7.158;2022-11-11T03:35:37;28.17;;;10.97;;
3643;SDS011;1838;50.742;7.158;2022-11-11T03:38:03;23.50;;;11.00;;
3643;SDS011;1838;50.742;7.158;2022-11-11T03:40:41;27.57;;;10.47;;
3643;SDS011;1838;50.742;7.158;2022-11-11T03:43:11;21.63;;;10.80;;
3643;SDS011;1838;50.742;7.158;2022-11-11T03:45:38;31.73;;;11.23;;
3643;SDS011;1838;50.742;7.158;2022-11-11T03:48:03;31.13;;;11.03;;
3643;SDS011;1838;50.742;7.158;2022-11-11T03:50:29;26.90;;;11.53;;
3643;SDS011;1838;50.742;7.158;2022-11-11T03:52:55;28.73;;;10.40;;
3643;SDS011;1838;50.742;7.158;2022-11-11T03:55:21;18.30;;;10.33;;
3643;SDS011;1838;50.742;7.158;2022-11-11T03:57:47;26.53;;;10.20;;
3643;SDS011;1838;50.742;7.158;2022-11-11T04:00:13;18.77;;;10.23;;
3643;SDS011;1838;50.742;7.158;2022-11-11T04:02:41;29.10;;;10.60;;
3643;SDS011;1838;50.742;7.158;2022-11-11T04:05:25;17.13;;;9.50;;
3643;SDS011;1838;50.742;7.158;2022-11-11T04:08:13;17.00;;;9.07;;
3643;SDS011;1838;50.742;7.158;2022-11-11T04:10:59;23.83;;;10.63;;
3643;SDS011;1838;50.742;7.158;2022-11-11T04:13:40;19.73;;;10.10;;
3643;SDS011;1838;50.742;7.158;2022-11-11T04:16:27;20.70;;;9.70;;
3643;SDS011;1838;50.742;7.158;2022-11-11T04:18:52;25.90;;;11.60;;
3643;SDS011;1838;50.742;7.158;2022-11-11T04:21:36;24.20;;;9.77;;
3643;SDS011;1838;50.742;7.158;2022-11-11T04:24:08;29.27;;;11.00;;
3643;SDS011;1838;50.742;7.158;2022-11-11T04:26:58;17.37;;;10.03;;
3643;SDS011;1838;50.742;7.158;2022-11-11T04:29:25;19.70;;;10.53;;
3643;SDS011;1838;50.742;7.158;2022-11-11T04:32:00;23.97;;;11.60;;
3643;SDS011;1838;50.742;7.158;2022-11-11T04:34:56;20.27;;;9.97;;
3643;SDS011;1838;50.742;7.158;2022-11-11T04:37:32;22.23;;;9.77;;
3643;SDS011;1838;50.742;7.158;2022-11-11T04:40:08;30.60;;;11.23;;
3643;SDS011;1838;50.742;7.158;2022-11-11T04:42:52;28.17;;;10.83;;
3643;SDS011;1838;50.742;7.158;2022-11-11T04:45:18;23.00;;;11.57;;
3643;SDS011;1838;50.742;7.158;2022-11-11T04:50:35;24.47;;;10.77;;
3643;SDS011;1838;50.742;7.158;2022-11-11T04:53:02;22.20;;;9.73;;
3643;SDS011;1838;50.742;7.158;2022-11-11T04:55:29;20.30;;;10.13;;
3643;SDS011;1838;50.742;7.158;2022-11-11T04:58:14;19.90;;;11.40;;
3643;SDS011;1838;50.742;7.158;2022-11-11T05:00:41;25.33;;;12.17;;
3643;SDS011;1838;50.742;7.158;2022-11-11T05:03:09;36.37;;;13.60;;
3643;SDS011;1838;50.742;7.158;2022-11-11T05:08:32;25.97;;;13.20;;
3643;SDS011;1838;50.742;7.158;2022-11-11T05:11:18;20.33;;;9.30;;
3643;SDS011;1838;50.742;7.158;2022-11-11T05:13:45;22.30;;;10.13;;
3643;SDS011;1838;50.742;7.158;2022-11-11T05:16:31;16.33;;;9.30;;
3643;SDS011;1838;50.742;7.158;2022-11-11T05:19:17;16.83;;;9.50;;
3643;SDS011;1838;50.742;7.158;2022-11-11T05:22:09;26.70;;;11.20;;
3643;SDS011;1838;50.742;7.158;2022-11-11T05:24:54;17.90;;;8.50;;
3643;SDS011;1838;50.742;7.158;2022-11-11T05:27:39;20.70;;;9.70;;
3643;SDS011;1838;50.742;7.158;2022-11-11T05:30:06;25.33;;;10.03;;
3643;SDS011;1838;50.742;7.158;2022-11-11T05:32:33;15.93;;;9.40;;
3643;SDS011;1838;50.742;7.158;2022-11-11T05:34:58;17.23;;;7.67;;
3643;SDS011;1838;50.742;7.158;2022-11-11T05:37:24;17.80;;;8.07;;
3643;SDS011;1838;50.742;7.158;2022-11-11T05:39:49;19.90;;;8.93;;
3643;SDS011;1838;50.742;7.158;2022-11-11T05:42:15;22.10;;;9.43;;
3643;SDS011;1838;50.742;7.158;2022-11-11T05:44:41;17.37;;;9.30;;
3643;SDS011;1838;50.742;7.158;2022-11-11T05:47:06;23.03;;;11.07;;
3643;SDS011;1838;50.742;7.158;2022-11-11T05:49:32;17.47;;;9.87;;
3643;SDS011;1838;50.742;7.158;2022-11-11T05:51:58;21.07;;;9.87;;
3643;SDS011;1838;50.742;7.158;2022-11-11T05:54:24;19.30;;;9.73;;
3643;SDS011;1838;50.742;7.158;2022-11-11T05:56:50;22.93;;;10.50;;
3643;SDS011;1838;50.742;7.158;2022-11-11T05:59:15;18.47;;;9.60;;
3643;SDS011;1838;50.742;7.158;2022-11-11T06:01:41;29.90;;;10.57;;
3643;SDS011;1838;50.742;7.158;2022-11-11T06:04:07;20.83;;;10.50;;
3643;SDS011;1838;50.742;7.158;2022-11-11T06:06:33;19.73;;;9.80;;
3643;SDS011;1838;50.742;7.158;2022-11-11T06:09:00;19.00;;;10.50;;
3643;SDS011;1838;50.742;7.158;2022-11-11T06:11:26;20.80;;;9.50;;
3643;SDS011;1838;50.742;7.158;2022-11-11T06:13:52;20.90;;;9.67;;
3643;SDS011;1838;50.742;7.158;2022-11-11T06:16:18;23.00;;;10.37;;
3643;SDS011;1838;50.742;7.158;2022-11-11T06:18:43;25.30;;;9.30;;
3643;SDS011;1838;50.742;7.158;2022-11-11T06:21:09;21.40;;;9.70;;
3643;SDS011;1838;50.742;7.158;2022-11-11T06:23:35;21.30;;;10.17;;
3643;SDS011;1838;50.742;7.158;2022-11-11T06:26:00;22.50;;;9.83;;
3643;SDS011;1838;50.742;7.158;2022-11-11T06:28:45;20.63;;;10.33;;
3643;SDS011;1838;50.742;7.158;2022-11-11T06:31:13;21.27;;;10.50;;
3643;SDS011;1838;50.742;7.158;2022-11-11T06:33:40;20.57;;;9.87;;
3643;SDS011;1838;50.742;7.158;2022-11-11T06:36:06;15.77;;;8.40;;
3643;SDS011;1838;50.742;7.158;2022-11-11T06:38:34;21.30;;;9.30;;
3643;SDS011;1838;50.742;7.158;2022-11-11T06:40:59;19.17;;;9.73;;
3643;SDS011;1838;50.742;7.158;2022-11-11T06:43:25;21.87;;;9.67;;
3643;SDS011;1838;50.742;7.158;2022-11-11T06:45:51;19.47;;;9.57;;
3643;SDS011;1838;50.742;7.158;2022-11-11T06:48:18;21.13;;;9.30;;
3643;SDS011;1838;50.742;7.158;2022-11-11T06:50:44;20.67;;;9.93;;
3643;SDS011;1838;50.742;7.158;2022-11-11T06:53:11;17.80;;;9.30;;
3643;SDS011;1838;50.742;7.158;2022-11-11T06:55:38;16.00;;;8.40;;
3643;SDS011;1838;50.742;7.158;2022-11-11T06:58:08;13.47;;;8.40;;
3643;SDS011;1838;50.742;7.158;2022-11-11T07:00:35;17.43;;;8.40;;
3643;SDS011;1838;50.742;7.158;2022-11-11T07:03:04;18.60;;;8.70;;
3643;SDS011;1838;50.742;7.158;2022-11-11T07:05:31;17.13;;;8.30;;
3643;SDS011;1838;50.742;7.158;2022-11-11T07:08:00;22.40;;;8.47;;
3643;SDS011;1838;50.742;7.158;2022-11-11T07:10:30;18.10;;;8.93;;
3643;SDS011;1838;50.742;7.158;2022-11-11T07:12:57;12.27;;;7.80;;
3643;SDS011;1838;50.742;7.158;2022-11-11T07:15:23;14.10;;;8.73;;
3643;SDS011;1838;50.742;7.158;2022-11-11T07:17:49;15.63;;;9.90;;
3643;SDS011;1838;50.742;7.158;2022-11-11T07:20:15;16.80;;;8.63;;
3643;SDS011;1838;50.742;7.158;2022-11-11T07:22:41;21.93;;;10.43;;
3643;SDS011;1838;50.742;7.158;2022-11-11T07:25:06;15.37;;;8.90;;
3643;SDS011;1838;50.742;7.158;2022-11-11T07:27:35;16.73;;;8.27;;
3643;SDS011;1838;50.742;7.158;2022-11-11T07:30:02;11.10;;;7.37;;
3643;SDS011;1838;50.742;7.158;2022-11-11T07:32:29;23.70;;;9.90;;
3643;SDS011;1838;50.742;7.158;2022-11-11T07:34:54;25.33;;;10.50;;
3643;SDS011;1838;50.742;7.158;2022-11-11T07:37:20;19.53;;;10.07;;
3643;SDS011;1838;50.742;7.158;2022-11-11T07:39:45;25.13;;;9.90;;
3643;SDS011;1838;50.742;7.158;2022-11-11T07:42:11;21.23;;;10.33;;
3643;SDS011;1838;50.742;7.158;2022-11-11T07:44:36;22.50;;;9.97;;
3643;SDS011;1838;50.742;7.158;2022-11-11T07:47:02;21.40;;;10.20;;
3643;SDS011;1838;50.742;7.158;2022-11-11T07:49:27;23.90;;;9.70;;
3643;SDS011;1838;50.742;7.158;2022-11-11T07:51:53;21.63;;;9.00;;
3643;SDS011;1838;50.742;7.158;2022-11-11T07:54:18;22.93;;;9.20;;
3643;SDS011;1838;50.742;7.158;2022-11-11T07:56:44;25.07;;;10.97;;
3643;SDS011;1838;50.742;7.158;2022-11-11T07:59:09;19.47;;;9.17;;
3643;SDS011;1838;50.742;7.158;2022-11-11T08:01:35;19.80;;;9.90;;
3643;SDS011;1838;50.742;7.158;2022-11-11T08:04:00;19.07;;;9.50;;
3643;SDS011;1838;50.742;7.158;2022-11-11T08:06:26;23.90;;;10.13;;
3643;SDS011;1838;50.742;7.158;2022-11-11T08:08:52;19.90;;;9.80;;
3643;SDS011;1838;50.742;7.158;2022-11-11T08:11:18;21.50;;;9.87;;
3643;SDS011;1838;50.742;7.158;2022-11-11T08:14:03;16.47;;;8.40;;
3643;SDS011;1838;50.742;7.158;2022-11-11T08:16:29;22.47;;;10.50;;
3643;SDS011;1838;50.742;7.158;2022-11-11T08:18:54;20.43;;;9.70;;
3643;SDS011;1838;50.742;7.158;2022-11-11T08:21:22;20.03;;;9.30;;
3643;SDS011;1838;50.742;7.158;2022-11-11T08:23:48;24.50;;;10.03;;
3643;SDS011;1838;50.742;7.158;2022-11-11T08:26:13;20.10;;;9.73;;
3643;SDS011;1838;50.742;7.158;2022-11-11T08:28:39;19.80;;;9.87;;
3643;SDS011;1838;50.742;7.158;2022-11-11T08:31:04;21.93;;;9.20;;
3643;SDS011;1838;50.742;7.158;2022-11-11T08:33:30;23.07;;;8.43;;
3643;SDS011;1838;50.742;7.158;2022-11-11T08:35:57;21.23;;;9.30;;
3643;SDS011;1838;50.742;7.158;2022-11-11T08:38:23;17.23;;;8.40;;
3643;SDS011;1838;50.742;7.158;2022-11-11T08:40:50;18.47;;;8.17;;
3643;SDS011;1838;50.742;7.158;2022-11-11T08:43:16;21.10;;;11.10;;
3643;SDS011;1838;50.742;7.158;2022-11-11T08:45:42;22.00;;;9.50;;
3643;SDS011;1838;50.742;7.158;2022-11-11T08:48:08;12.20;;;8.00;;
3643;SDS011;1838;50.742;7.158;2022-11-11T08:50:37;17.50;;;9.37;;
3643;SDS011;1838;50.742;7.158;2022-11-11T08:53:05;19.70;;;9.17;;
3643;SDS011;1838;50.742;7.158;2022-11-11T08:55:32;18.03;;;8.37;;
3643;SDS011;1838;50.742;7.158;2022-11-11T08:57:59;15.83;;;8.80;;
3643;SDS011;1838;50.742;7.158;2022-11-11T09:00:26;23.53;;;9.00;;
3643;SDS011;1838;50.742;7.158;2022-11-11T09:02:53;15.23;;;7.43;;
3643;SDS011;1838;50.742;7.158;2022-11-11T09:05:18;18.00;;;9.40;;
3643;SDS011;1838;50.742;7.158;2022-11-11T09:07:44;13.30;;;7.97;;
3643;SDS011;1838;50.742;7.158;2022-11-11T09:10:09;15.63;;;7.37;;
3643;SDS011;1838;50.742;7.158;2022-11-11T09:12:35;11.00;;;6.67;;
3643;SDS011;1838;50.742;7.158;2022-11-11T09:15:01;11.13;;;6.70;;
3643;SDS011;1838;50.742;7.158;2022-11-11T09:17:27;12.63;;;7.80;;
3643;SDS011;1838;50.742;7.158;2022-11-11T09:19:52;16.10;;;7.17;;
3643;SDS011;1838;50.742;7.158;2022-11-11T09:22:18;13.07;;;7.37;;
3643;SDS011;1838;50.742;7.158;2022-11-11T09:24:43;12.70;;;7.33;;
3643;SDS011;1838;50.742;7.158;2022-11-11T09:27:09;15.33;;;7.30;;
3643;SDS011;1838;50.742;7.158;2022-11-11T09:29:35;14.70;;;7.27;;
3643;SDS011;1838;50.742;7.158;2022-11-11T09:32:00;17.80;;;7.20;;
3643;SDS011;1838;50.742;7.158;2022-11-11T09:34:26;9.47;;;6.03;;
3643;SDS011;1838;50.742;7.158;2022-11-11T09:36:52;12.13;;;7.70;;
3643;SDS011;1838;50.742;7.158;2022-11-11T09:39:17;11.00;;;6.30;;
3643;SDS011;1838;50.742;7.158;2022-11-11T09:44:41;13.63;;;6.47;;
3643;SDS011;1838;50.742;7.158;2022-11-11T09:49:46;10.13;;;6.37;;
3643;SDS011;1838;50.742;7.158;2022-11-11T09:52:21;9.07;;;5.70;;
3643;SDS011;1838;50.742;7.158;2022-11-11T09:54:53;9.13;;;6.20;;
3643;SDS011;1838;50.742;7.158;2022-11-11T09:59:51;13.70;;;5.53;;
3643;SDS011;1838;50.742;7.158;2022-11-11T10:02:34;11.47;;;5.90;;
3643;SDS011;1838;50.742;7.158;2022-11-11T10:05:07;7.40;;;5.20;;
3643;SDS011;1838;50.742;7.158;2022-11-11T10:07:40;7.17;;;5.90;;
3643;SDS011;1838;50.742;7.158;2022-11-11T10:13:11;8.90;;;5.23;;
3643;SDS011;1838;50.742;7.158;2022-11-11T10:21:36;8.20;;;4.93;;
3643;SDS011;1838;50.742;7.158;2022-11-11T10:24:11;8.30;;;4.73;;
3643;SDS011;1838;50.742;7.158;2022-11-11T10:26:41;7.73;;;4.90;;
3643;SDS011;1838;50.742;7.158;2022-11-11T10:29:11;10.73;;;5.30;;
3643;SDS011;1838;50.742;7.158;2022-11-11T10:31:43;5.70;;;3.73;;
3643;SDS011;1838;50.742;7.158;2022-11-11T10:34:11;8.10;;;5.10;;
3643;SDS011;1838;50.742;7.158;2022-11-11T10:36:41;8.93;;;4.30;;
3643;SDS011;1838;50.742;7.158;2022-11-11T10:39:10;7.23;;;4.70;;
3643;SDS011;1838;50.742;7.158;2022-11-11T10:41:42;16.63;;;5.30;;
3643;SDS011;1838;50.742;7.158;2022-11-11T10:44:27;8.93;;;4.37;;
3643;SDS011;1838;50.742;7.158;2022-11-11T10:47:09;4.17;;;3.70;;
3643;SDS011;1838;50.742;7.158;2022-11-11T10:49:58;8.20;;;3.63;;
3643;SDS011;1838;50.742;7.158;2022-11-11T10:52:40;12.50;;;4.63;;
3643;SDS011;1838;50.742;7.158;2022-11-11T10:55:28;8.70;;;3.60;;
3643;SDS011;1838;50.742;7.158;2022-11-11T10:58:15;5.57;;;4.03;;
3643;SDS011;1838;50.742;7.158;2022-11-11T11:00:56;5.93;;;3.83;;
3643;SDS011;1838;50.742;7.158;2022-11-11T11:03:26;6.83;;;3.90;;
3643;SDS011;1838;50.742;7.158;2022-11-11T11:06:09;8.83;;;4.13;;
3643;SDS011;1838;50.742;7.158;2022-11-11T11:08:41;8.37;;;3.70;;
3643;SDS011;1838;50.742;7.158;2022-11-11T11:13:50;7.70;;;3.80;;
3643;SDS011;1838;50.742;7.158;2022-11-11T11:16:22;6.57;;;4.07;;
3643;SDS011;1838;50.742;7.158;2022-11-11T11:24:24;5.17;;;3.60;;
3643;SDS011;1838;50.742;7.158;2022-11-11T11:26:57;5.47;;;3.03;;
3643;SDS011;1838;50.742;7.158;2022-11-11T11:29:36;7.77;;;3.80;;
3643;SDS011;1838;50.742;7.158;2022-11-11T11:32:19;7.00;;;3.80;;
3643;SDS011;1838;50.742;7.158;2022-11-11T11:34:49;9.73;;;4.17;;
3643;SDS011;1838;50.742;7.158;2022-11-11T11:37:20;9.87;;;4.07;;
3643;SDS011;1838;50.742;7.158;2022-11-11T11:40:00;9.90;;;4.17;;
3643;SDS011;1838;50.742;7.158;2022-11-11T11:42:29;7.97;;;3.60;;
3643;SDS011;1838;50.742;7.158;2022-11-11T11:44:56;7.23;;;3.33;;
3643;SDS011;1838;50.742;7.158;2022-11-11T11:50:44;7.30;;;3.20;;
3643;SDS011;1838;50.742;7.158;2022-11-11T11:56:00;4.70;;;3.17;;
3643;SDS011;1838;50.742;7.158;2022-11-11T11:58:39;7.33;;;4.00;;
3643;SDS011;1838;50.742;7.158;2022-11-11T12:07:04;8.33;;;3.50;;
3643;SDS011;1838;50.742;7.158;2022-11-11T12:12:14;7.87;;;3.30;;
3643;SDS011;1838;50.742;7.158;2022-11-11T12:18:00;4.97;;;3.23;;
3643;SDS011;1838;50.742;7.158;2022-11-11T12:20:41;6.77;;;3.47;;
3643;SDS011;1838;50.742;7.158;2022-11-11T12:23:41;4.00;;;3.33;;
3643;SDS011;1838;50.742;7.158;2022-11-11T12:26:26;6.40;;;3.60;;
3643;SDS011;1838;50.742;7.158;2022-11-11T12:29:00;3.30;;;3.00;;
3643;SDS011;1838;50.742;7.158;2022-11-11T12:32:02;4.10;;;2.60;;
3643;SDS011;1838;50.742;7.158;2022-11-11T12:35:19;4.60;;;2.97;;
3643;SDS011;1838;50.742;7.158;2022-11-11T12:46:22;4.80;;;2.13;;
3643;SDS011;1838;50.742;7.158;2022-11-11T12:51:53;3.20;;;2.57;;
3643;SDS011;1838;50.742;7.158;2022-11-11T13:00:31;6.80;;;2.90;;
3643;SDS011;1838;50.742;7.158;2022-11-11T13:03:14;5.53;;;2.87;;
3643;SDS011;1838;50.742;7.158;2022-11-11T13:06:18;5.40;;;3.13;;
3643;SDS011;1838;50.742;7.158;2022-11-11T13:09:14;4.13;;;3.17;;
3643;SDS011;1838;50.742;7.158;2022-11-11T13:12:01;3.50;;;3.00;;
3643;SDS011;1838;50.742;7.158;2022-11-11T13:14:47;5.47;;;3.70;;
3643;SDS011;1838;50.742;7.158;2022-11-11T13:17:24;4.47;;;2.57;;
3643;SDS011;1838;50.742;7.158;2022-11-11T13:20:52;3.37;;;2.20;;
3643;SDS011;1838;50.742;7.158;2022-11-11T13:22:59;3.93;;;2.73;;
3643;SDS011;1838;50.742;7.158;2022-11-11T13:25:26;4.50;;;2.63;;
3643;SDS011;1838;50.742;7.158;2022-11-11T13:28:01;6.23;;;2.50;;
3643;SDS011;1838;50.742;7.158;2022-11-11T13:33:17;6.13;;;2.50;;
3643;SDS011;1838;50.742;7.158;2022-11-11T13:35:51;7.63;;;3.40;;
3643;SDS011;1838;50.742;7.158;2022-11-11T13:40:59;5.43;;;2.97;;
3643;SDS011;1838;50.742;7.158;2022-11-11T13:43:29;3.53;;;2.57;;
3643;SDS011;1838;50.742;7.158;2022-11-11T13:49:02;5.53;;;2.50;;
3643;SDS011;1838;50.742;7.158;2022-11-11T13:54:20;3.77;;;2.40;;
3643;SDS011;1838;50.742;7.158;2022-11-11T13:56:50;3.63;;;2.70;;
3643;SDS011;1838;50.742;7.158;2022-11-11T13:59:31;10.10;;;2.80;;
3643;SDS011;1838;50.742;7.158;2022-11-11T14:12:44;11.90;;;3.73;;
3643;SDS011;1838;50.742;7.158;2022-11-11T14:17:58;7.00;;;2.73;;
3643;SDS011;1838;50.742;7.158;2022-11-11T14:25:49;4.97;;;2.50;;
3643;SDS011;1838;50.742;7.158;2022-11-11T14:30:52;10.00;;;5.10;;
3643;SDS011;1838;50.742;7.158;2022-11-11T14:33:25;3.53;;;3.00;;
3643;SDS011;1838;50.742;7.158;2022-11-11T14:41:42;7.47;;;4.80;;
3643;SDS011;1838;50.742;7.158;2022-11-11T14:47:36;10.70;;;6.20;;
3643;SDS011;1838;50.742;7.158;2022-11-11T14:52:34;7.07;;;4.60;;
3643;SDS011;1838;50.742;7.158;2022-11-11T14:57:29;6.00;;;4.20;;
3643;SDS011;1838;50.742;7.158;2022-11-11T15:07:58;8.70;;;4.60;;
3643;SDS011;1838;50.742;7.158;2022-11-11T15:10:28;14.37;;;6.90;;
3643;SDS011;1838;50.742;7.158;2022-11-11T15:16:13;8.47;;;5.90;;
3643;SDS011;1838;50.742;7.158;2022-11-11T15:21:29;11.43;;;6.73;;
3643;SDS011;1838;50.742;7.158;2022-11-11T15:24:12;8.90;;;8.00;;
3643;SDS011;1838;50.742;7.158;2022-11-11T15:26:57;8.53;;;6.87;;
3643;SDS011;1838;50.742;7.158;2022-11-11T15:30:01;9.03;;;4.73;;
3643;SDS011;1838;50.742;7.158;2022-11-11T15:37:53;5.73;;;3.87;;
3643;SDS011;1838;50.742;7.158;2022-11-11T15:40:21;5.33;;;3.70;;
3643;SDS011;1838;50.742;7.158;2022-11-11T15:42:48;7.50;;;3.63;;
3643;SDS011;1838;50.742;7.158;2022-11-11T15:47:43;4.13;;;3.20;;
3643;SDS011;1838;50.742;7.158;2022-11-11T15:52:57;4.63;;;4.10;;
3643;SDS011;1838;50.742;7.158;2022-11-11T15:55:31;7.50;;;3.40;;
3643;SDS011;1838;50.742;7.158;2022-11-11T16:00:35;7.23;;;3.30;;
3643;SDS011;1838;50.742;7.158;2022-11-11T16:03:01;5.10;;;2.30;;
3643;SDS011;1838;50.742;7.158;2022-11-11T16:05:28;9.00;;;3.70;;
3643;SDS011;1838;50.742;7.158;2022-11-11T16:07:56;9.93;;;2.90;;
3643;SDS011;1838;50.742;7.158;2022-11-11T16:10:32;7.30;;;3.00;;
3643;SDS011;1838;50.742;7.158;2022-11-11T16:13:12;6.53;;;3.70;;
3643;SDS011;1838;50.742;7.158;2022-11-11T16:18:32;7.77;;;4.03;;
3643;SDS011;1838;50.742;7.158;2022-11-11T16:21:07;8.43;;;4.10;;
3643;SDS011;1838;50.742;7.158;2022-11-11T16:23:55;12.30;;;3.67;;
3643;SDS011;1838;50.742;7.158;2022-11-11T16:26:22;8.80;;;3.40;;
3643;SDS011;1838;50.742;7.158;2022-11-11T16:28:53;5.87;;;3.60;;
3643;SDS011;1838;50.742;7.158;2022-11-11T16:33:58;7.87;;;3.90;;
3643;SDS011;1838;50.742;7.158;2022-11-11T16:37:06;7.17;;;3.83;;
3643;SDS011;1838;50.742;7.158;2022-11-11T16:39:37;4.68;;;3.30;;
3643;SDS011;1838;50.742;7.158;2022-11-11T16:42:03;8.00;;;3.40;;
3643;SDS011;1838;50.742;7.158;2022-11-11T16:46:58;12.83;;;4.60;;
3643;SDS011;1838;50.742;7.158;2022-11-11T16:51:52;9.27;;;3.70;;
3643;SDS011;1838;50.742;7.158;2022-11-11T16:54:22;5.23;;;3.37;;
3643;SDS011;1838;50.742;7.158;2022-11-11T16:56:52;8.73;;;4.93;;
3643;SDS011;1838;50.742;7.158;2022-11-11T16:59:21;16.00;;;8.27;;
3643;SDS011;1838;50.742;7.158;2022-11-11T17:02:18;19.00;;;8.30;;
3643;SDS011;1838;50.742;7.158;2022-11-11T17:04:47;12.37;;;7.23;;
3643;SDS011;1838;50.742;7.158;2022-11-11T17:09:52;12.13;;;7.50;;
3643;SDS011;1838;50.742;7.158;2022-11-11T17:12:19;7.30;;;5.30;;
3643;SDS011;1838;50.742;7.158;2022-11-11T17:14:54;5.83;;;4.53;;
3643;SDS011;1838;50.742;7.158;2022-11-11T17:17:20;4.10;;;3.03;;
3643;SDS011;1838;50.742;7.158;2022-11-11T17:19:46;5.27;;;2.90;;
3643;SDS011;1838;50.742;7.158;2022-11-11T17:22:11;7.53;;;3.27;;
3643;SDS011;1838;50.742;7.158;2022-11-11T17:24:37;4.30;;;3.40;;
3643;SDS011;1838;50.742;7.158;2022-11-11T17:27:03;6.30;;;2.53;;
3643;SDS011;1838;50.742;7.158;2022-11-11T17:29:29;5.17;;;3.13;;
3643;SDS011;1838;50.742;7.158;2022-11-11T17:31:55;6.80;;;3.43;;
3643;SDS011;1838;50.742;7.158;2022-11-11T17:34:20;6.00;;;3.23;;
3643;SDS011;1838;50.742;7.158;2022-11-11T17:36:46;3.97;;;2.47;;
3643;SDS011;1838;50.742;7.158;2022-11-11T17:39:11;5.57;;;3.30;;
3643;SDS011;1838;50.742;7.158;2022-11-11T17:41:37;11.13;;;3.67;;
3643;SDS011;1838;50.742;7.158;2022-11-11T17:44:02;6.50;;;3.57;;
3643;SDS011;1838;50.742;7.158;2022-11-11T17:46:28;6.30;;;3.70;;
3643;SDS011;1838;50.742;7.158;2022-11-11T17:48:54;4.63;;;2.70;;
3643;SDS011;1838;50.742;7.158;2022-11-11T17:51:21;4.57;;;3.27;;
3643;SDS011;1838;50.742;7.158;2022-11-11T17:53:48;8.70;;;2.80;;
3643;SDS011;1838;50.742;7.158;2022-11-11T17:56:14;7.73;;;2.73;;
3643;SDS011;1838;50.742;7.158;2022-11-11T17:58:39;7.40;;;4.33;;
3643;SDS011;1838;50.742;7.158;2022-11-11T18:01:09;4.07;;;3.30;;
3643;SDS011;1838;50.742;7.158;2022-11-11T18:03:39;6.87;;;3.13;;
3643;SDS011;1838;50.742;7.158;2022-11-11T18:06:06;5.50;;;3.87;;